Terminal Aerodrome Forecast
Issued by NWS

Home | Current Version | Previous Version | Text Only | Print | Product List | Glossary On
Versions: 1 2 3 4 5 6 7 8 9 10 11 12 13 14 15 16 17
000
FTUS41 KBOX 132117 AAA
TAFHYA
TAF AMD
KHYA 132117Z 1321/1418 27018G32KT P6SM FEW070
     FM140000 27014G24KT P6SM SKC
     FM140800 27010G20KT P6SM VCSH OVC080
     FM141000 27011G21KT 4SM -SN OVC035
     FM141200 29008KT 1SM -SN OVC030
     FM141500 32008G19KT 3SM -SN OVC015
     FM141700 31010KT P6SM VCSH BKN040=

USA.gov is the U.S. government's official web portal to all federal, state and local government web resources and services.